createdAt,value
2022-10-20T00:01:24.362Z,88.38
2022-10-20T00:03:52.828Z,88.16
2022-10-20T00:06:21.799Z,87.87
2022-10-20T00:08:50.032Z,88.11
2022-10-20T00:11:20.607Z,88.15
2022-10-20T00:13:51.957Z,88.15
2022-10-20T00:16:20.988Z,88.28
2022-10-20T00:18:48.623Z,88.30
2022-10-20T00:21:22.716Z,88.61
2022-10-20T00:23:51.126Z,88.80
2022-10-20T00:26:21.181Z,88.76
2022-10-20T00:28:49.915Z,88.89
2022-10-20T00:31:20.063Z,88.94
2022-10-20T00:33:48.020Z,88.84
2022-10-20T00:36:19.190Z,88.59
2022-10-20T00:38:47.357Z,88.36
2022-10-20T00:41:17.731Z,88.15
2022-10-20T00:43:51.506Z,87.69
2022-10-20T00:46:43.980Z,87.39
2022-10-20T00:49:23.526Z,87.38
2022-10-20T00:51:54.441Z,87.32
2022-10-20T00:54:26.848Z,87.14
2022-10-20T00:56:57.000Z,87.12
2022-10-20T00:59:33.098Z,87.08
2022-10-20T01:02:02.582Z,87.12
2022-10-20T01:04:32.206Z,86.86
2022-10-20T01:07:00.412Z,86.74
2022-10-20T01:09:28.415Z,86.70
2022-10-20T01:12:23.676Z,86.48
2022-10-20T01:15:08.272Z,86.52
2022-10-20T01:18:08.797Z,86.35
2022-10-20T01:21:01.048Z,86.40
2022-10-20T01:24:03.637Z,86.37
2022-10-20T01:26:36.930Z,86.29
2022-10-20T01:29:28.974Z,86.19
2022-10-20T01:32:18.867Z,86.46
2022-10-20T01:35:32.926Z,87.06
2022-10-20T01:38:31.200Z,87.42
2022-10-20T01:41:46.411Z,87.60
2022-10-20T01:44:18.593Z,87.78
2022-10-20T01:46:48.046Z,88.28
2022-10-20T01:49:16.540Z,88.23
2022-10-20T01:51:44.110Z,88.08
2022-10-20T01:54:44.454Z,88.18
2022-10-20T01:57:59.643Z,88.42
2022-10-20T02:00:27.523Z,88.23
2022-10-20T02:03:29.936Z,88.54
2022-10-20T02:06:29.947Z,88.49
2022-10-20T02:09:07.199Z,88.21
2022-10-20T02:11:48.091Z,88.12
2022-10-20T02:14:20.371Z,88.10
2022-10-20T02:16:54.512Z,88.31
2022-10-20T02:19:26.502Z,88.31
2022-10-20T02:21:56.520Z,88.13
2022-10-20T02:24:32.051Z,88.36
2022-10-20T02:27:04.635Z,88.42
2022-10-20T02:29:41.550Z,88.05
2022-10-20T02:32:11.993Z,88.41
2022-10-20T02:34:42.404Z,88.25
2022-10-20T02:37:10.815Z,88.96
2022-10-20T02:39:38.423Z,89.13
2022-10-20T02:42:06.699Z,89.03
2022-10-20T02:44:34.174Z,88.80
2022-10-20T02:47:01.631Z,88.56
2022-10-20T02:49:29.130Z,88.65
2022-10-20T02:51:56.744Z,88.79
2022-10-20T02:54:24.223Z,88.94
2022-10-20T02:56:51.665Z,88.75
2022-10-20T02:59:19.227Z,88.20
2022-10-20T03:01:47.237Z,88.34
2022-10-20T03:04:14.902Z,88.15
2022-10-20T03:06:42.460Z,88.28
2022-10-20T03:09:10.029Z,88.49
2022-10-20T03:11:37.471Z,88.30
2022-10-20T03:14:05.082Z,88.57
2022-10-20T03:16:32.531Z,88.52
2022-10-20T03:19:03.977Z,88.63
2022-10-20T03:21:34.145Z,88.47
2022-10-20T03:24:01.689Z,89.13
2022-10-20T03:26:29.164Z,89.34
2022-10-20T03:28:56.647Z,89.11
2022-10-20T03:31:24.109Z,89.05
2022-10-20T03:33:51.665Z,89.18
2022-10-20T03:36:19.199Z,90.12
2022-10-20T03:38:46.650Z,90.53
2022-10-20T03:41:14.323Z,90.90
2022-10-20T03:43:42.127Z,89.99
2022-10-20T03:46:11.932Z,90.19
2022-10-20T03:48:40.334Z,89.97
2022-10-20T03:51:11.772Z,90.65
2022-10-20T03:53:39.402Z,90.68
2022-10-20T03:56:10.123Z,90.67
2022-10-20T03:58:37.613Z,90.75
2022-10-20T04:01:06.807Z,90.95
2022-10-20T04:03:34.224Z,91.39
2022-10-20T04:06:01.742Z,91.35
2022-10-20T04:08:29.248Z,91.09
2022-10-20T04:10:58.474Z,91.21
2022-10-20T04:13:25.953Z,91.07
2022-10-20T04:15:53.444Z,91.38
2022-10-20T04:18:20.976Z,91.14
2022-10-20T04:20:49.051Z,91.58
2022-10-20T04:23:16.538Z,91.65
2022-10-20T04:25:48.536Z,91.50
2022-10-20T04:28:18.259Z,91.46
2022-10-20T04:30:47.092Z,91.55
2022-10-20T04:33:14.963Z,91.54
2022-10-20T04:35:42.998Z,91.59
2022-10-20T04:38:10.479Z,91.60
2022-10-20T04:40:37.938Z,91.37
2022-10-20T04:43:05.389Z,90.98
2022-10-20T04:45:32.867Z,90.61
2022-10-20T04:48:00.364Z,90.64
2022-10-20T04:50:27.797Z,90.51
2022-10-20T04:53:09.935Z,90.57
2022-10-20T04:55:37.773Z,90.70
2022-10-20T04:58:05.191Z,90.59
2022-10-20T05:00:32.645Z,90.66
2022-10-20T05:03:00.168Z,90.45
2022-10-20T05:05:27.907Z,90.60
2022-10-20T05:07:55.344Z,90.34
2022-10-20T05:10:22.797Z,90.06
2022-10-20T05:12:50.306Z,90.35
2022-10-20T05:15:17.757Z,90.38
2022-10-20T05:17:45.207Z,90.82
2022-10-20T05:20:12.661Z,90.51
2022-10-20T05:22:40.191Z,90.64
2022-10-20T05:25:31.406Z,90.23
2022-10-20T05:27:55.723Z,90.09
2022-10-20T05:30:23.167Z,90.04
2022-10-20T05:32:50.610Z,89.73
2022-10-20T05:35:18.065Z,89.50
2022-10-20T05:37:46.294Z,89.20
2022-10-20T05:40:13.981Z,88.84
2022-10-20T05:42:41.441Z,88.21
2022-10-20T05:45:09.694Z,89.24
2022-10-20T05:47:37.354Z,91.37
2022-10-20T05:50:05.333Z,91.23
2022-10-20T05:52:35.603Z,87.19
2022-10-20T05:55:05.017Z,75.67
2022-10-20T05:57:32.512Z,64.97
2022-10-20T05:59:59.967Z,62.11
2022-10-20T06:02:27.550Z,59.49
2022-10-20T06:04:55.006Z,58.86
2022-10-20T06:07:22.452Z,57.64
2022-10-20T06:09:49.913Z,57.50
2022-10-20T06:12:17.451Z,54.08
2022-10-20T06:14:44.945Z,53.62
2022-10-20T06:17:12.415Z,51.51
2022-10-20T06:19:39.874Z,51.58
2022-10-20T06:22:07.335Z,51.26
2022-10-20T06:24:35.073Z,52.85
2022-10-20T06:27:02.508Z,53.79
2022-10-20T06:29:29.975Z,54.45
2022-10-20T06:31:57.431Z,52.81
2022-10-20T06:34:26.231Z,51.49
2022-10-20T06:36:53.911Z,50.42
2022-10-20T06:39:24.170Z,48.15
2022-10-20T06:41:54.843Z,45.43
2022-10-20T06:44:24.478Z,44.79
2022-10-20T06:46:52.621Z,44.07
2022-10-20T06:49:20.994Z,45.32
2022-10-20T06:51:49.480Z,44.96
2022-10-20T06:54:18.140Z,45.06
2022-10-20T06:56:45.657Z,44.68
2022-10-20T06:59:13.133Z,43.29
2022-10-20T07:01:40.808Z,42.63
2022-10-20T07:04:13.473Z,43.56
2022-10-20T07:06:43.839Z,41.46
2022-10-20T07:09:19.309Z,41.59
2022-10-20T07:11:51.875Z,42.07
2022-10-20T07:14:20.232Z,40.94
2022-10-20T07:16:47.724Z,37.80
2022-10-20T07:19:15.784Z,38.70
2022-10-20T07:21:45.674Z,38.25
2022-10-20T07:24:14.264Z,36.90
2022-10-20T07:26:42.735Z,36.67
2022-10-20T07:29:11.392Z,35.66
2022-10-20T07:31:47.884Z,34.07
2022-10-20T07:34:25.628Z,35.27
2022-10-20T07:36:55.446Z,36.61
2022-10-20T07:39:23.722Z,38.79
2022-10-20T07:41:51.464Z,38.53
2022-10-20T07:44:19.916Z,37.41
2022-10-20T07:46:47.468Z,34.49
2022-10-20T07:52:02.415Z,37.64
2022-10-20T07:54:29.983Z,36.20
2022-10-20T07:56:57.667Z,36.52
2022-10-20T07:59:25.145Z,34.82
2022-10-20T08:01:55.896Z,34.16
2022-10-20T08:04:25.008Z,33.04
2022-10-20T08:06:52.523Z,31.70
2022-10-20T08:09:19.827Z,31.65
2022-10-20T08:11:50.357Z,30.15
2022-10-20T08:14:20.440Z,29.97
2022-10-20T08:22:12.979Z,27.53
2022-10-20T08:24:40.615Z,25.84
2022-10-20T08:27:08.139Z,26.48
2022-10-20T08:29:37.215Z,26.11
2022-10-20T08:32:05.778Z,25.79
2022-10-20T08:34:33.446Z,26.77
2022-10-20T08:37:00.914Z,27.61
2022-10-20T08:39:28.451Z,27.84
2022-10-20T08:42:08.491Z,28.31
2022-10-20T08:44:40.056Z,28.34
2022-10-20T08:47:40.847Z,28.06
2022-10-20T08:50:16.118Z,26.75
2022-10-20T08:52:47.618Z,27.77
2022-10-20T08:55:29.202Z,26.78
2022-10-20T08:58:03.471Z,25.33
2022-10-20T09:00:35.690Z,24.97
2022-10-20T09:03:14.626Z,24.25
2022-10-20T09:05:46.731Z,25.00
2022-10-20T09:08:14.368Z,25.00
2022-10-20T09:10:52.616Z,23.89
2022-10-20T09:13:31.007Z,25.30
2022-10-20T09:16:40.501Z,24.00
2022-10-20T09:19:22.585Z,25.73
2022-10-20T09:21:57.491Z,29.74
2022-10-20T09:24:30.731Z,30.47
2022-10-20T09:27:21.702Z,32.57
2022-10-20T09:29:49.703Z,29.29
2022-10-20T09:32:46.180Z,27.52
2022-10-20T09:35:36.425Z,28.01
2022-10-20T09:38:09.758Z,26.33
2022-10-20T09:40:54.794Z,25.73
2022-10-20T09:43:22.562Z,26.46
2022-10-20T09:46:06.292Z,24.95
2022-10-20T09:48:47.894Z,25.00
2022-10-20T09:51:22.602Z,24.63
2022-10-20T09:53:54.185Z,22.17
2022-10-20T09:56:36.906Z,23.46
2022-10-20T09:59:22.360Z,23.47
2022-10-20T10:02:15.797Z,25.95
2022-10-20T10:04:47.195Z,25.04
2022-10-20T10:07:26.521Z,25.10
2022-10-20T10:10:05.682Z,25.68
2022-10-20T10:12:36.490Z,27.06
2022-10-20T10:15:36.071Z,24.69
2022-10-20T10:18:21.584Z,24.38
2022-10-20T10:21:06.980Z,22.18
2022-10-20T10:23:49.494Z,23.81
2022-10-20T10:26:45.960Z,24.45
2022-10-20T10:29:25.166Z,23.81
2022-10-20T10:32:24.210Z,22.30
2022-10-20T10:35:08.166Z,24.60
2022-10-20T10:37:40.364Z,23.61
2022-10-20T10:40:20.916Z,25.11
2022-10-20T10:43:16.751Z,25.71
2022-10-20T10:45:52.424Z,24.20
2022-10-20T10:48:45.823Z,26.36
2022-10-20T10:52:21.494Z,29.22
2022-10-20T10:55:48.695Z,26.05
2022-10-20T10:58:19.624Z,27.12
2022-10-20T11:01:19.941Z,32.17
2022-10-20T11:04:28.559Z,33.70
2022-10-20T11:07:40.047Z,31.60
2022-10-20T11:10:44.390Z,33.93
2022-10-20T11:13:32.716Z,36.29
2022-10-20T11:16:42.392Z,33.65
2022-10-20T11:19:44.052Z,33.67
2022-10-20T11:22:30.102Z,33.10
2022-10-20T11:25:25.795Z,32.27
2022-10-20T11:27:57.506Z,29.98
2022-10-20T11:30:27.437Z,31.06
2022-10-20T11:33:20.856Z,28.68
2022-10-20T11:36:10.962Z,30.06
2022-10-20T11:38:53.843Z,31.19
2022-10-20T11:41:35.291Z,34.57
2022-10-20T11:44:13.504Z,34.64
2022-10-20T11:47:14.600Z,32.92
2022-10-20T11:49:43.439Z,33.07
2022-10-20T11:53:00.515Z,33.77
2022-10-20T11:56:23.052Z,34.68
2022-10-20T11:59:49.575Z,39.51
2022-10-20T12:02:29.490Z,41.84
2022-10-20T12:05:12.842Z,43.61
2022-10-20T12:08:17.600Z,42.94
2022-10-20T12:11:05.846Z,44.02
2022-10-20T12:14:06.740Z,43.27
2022-10-20T12:16:52.220Z,44.79
2022-10-20T12:19:30.078Z,44.41
2022-10-20T12:22:26.470Z,44.79
2022-10-20T12:24:53.775Z,44.70
2022-10-20T12:27:27.670Z,46.11
2022-10-20T12:30:38.153Z,46.67
2022-10-20T12:33:46.443Z,48.13
2022-10-20T12:36:34.776Z,48.63
2022-10-20T12:39:15.929Z,49.10
2022-10-20T12:41:57.484Z,49.88
2022-10-20T12:44:28.679Z,49.57
2022-10-20T12:47:05.353Z,50.60
2022-10-20T12:49:34.695Z,50.58
2022-10-20T12:52:07.394Z,49.77
2022-10-20T12:54:48.449Z,49.88
2022-10-20T12:57:38.436Z,50.52
2022-10-20T13:00:08.668Z,50.60
2022-10-20T13:02:52.023Z,50.62
2022-10-20T13:05:19.422Z,50.41
2022-10-20T13:07:49.663Z,51.73
2022-10-20T13:10:39.002Z,51.40
2022-10-20T13:13:06.366Z,51.12
2022-10-20T13:15:44.888Z,52.07
2022-10-20T13:18:12.588Z,51.97
2022-10-20T13:21:16.128Z,51.98
2022-10-20T13:23:54.386Z,51.75
2022-10-20T13:26:31.123Z,52.04
2022-10-20T13:29:01.713Z,52.55
2022-10-20T13:31:58.181Z,52.94
2022-10-20T13:35:02.384Z,52.78
2022-10-20T13:37:56.563Z,52.76
2022-10-20T13:41:03.397Z,52.78
2022-10-20T13:44:09.880Z,52.90
2022-10-20T13:46:56.146Z,53.12
2022-10-20T13:49:29.415Z,53.14
2022-10-20T13:52:11.431Z,53.10
2022-10-20T13:54:45.715Z,53.61
2022-10-20T13:57:29.099Z,53.96
2022-10-20T14:00:19.676Z,53.37
2022-10-20T14:03:17.888Z,53.42
2022-10-20T14:05:45.347Z,53.96
2022-10-20T14:08:17.829Z,54.55
2022-10-20T14:11:00.114Z,54.88
2022-10-20T14:13:34.429Z,54.88
2022-10-20T14:16:07.424Z,54.57
2022-10-20T14:18:39.681Z,54.49
2022-10-20T14:21:19.101Z,54.96
2022-10-20T14:23:50.230Z,55.28
2022-10-20T14:26:22.587Z,55.09
2022-10-20T14:28:52.977Z,54.79
2022-10-20T14:31:25.343Z,54.64
2022-10-20T14:33:53.703Z,55.12
2022-10-20T14:36:24.648Z,55.04
2022-10-20T14:39:04.207Z,55.13
2022-10-20T14:41:35.928Z,55.76
2022-10-20T14:44:16.246Z,55.84
2022-10-20T14:46:50.735Z,56.37
2022-10-20T14:49:23.698Z,56.19
2022-10-20T14:51:59.910Z,56.93
2022-10-20T14:54:32.579Z,57.24
2022-10-20T14:57:30.811Z,57.59
2022-10-20T15:00:25.332Z,57.28
2022-10-20T15:02:56.896Z,57.96
2022-10-20T15:05:42.263Z,58.41
2022-10-20T15:08:17.692Z,58.73
2022-10-20T15:10:46.154Z,58.92
2022-10-20T15:13:31.569Z,58.91
2022-10-20T15:16:02.301Z,59.50
2022-10-20T15:18:30.633Z,59.82
2022-10-20T15:20:58.067Z,60.61
2022-10-20T15:23:29.649Z,61.08
2022-10-20T15:26:04.894Z,61.79
2022-10-20T15:28:50.936Z,61.84
2022-10-20T15:31:28.395Z,62.77
2022-10-20T15:33:58.050Z,63.27
2022-10-20T15:36:33.679Z,63.51
2022-10-20T15:39:02.970Z,64.29
2022-10-20T15:41:33.818Z,64.75
2022-10-20T15:44:16.151Z,65.30
2022-10-20T15:46:47.167Z,65.65
2022-10-20T15:49:14.862Z,65.96
2022-10-20T15:51:46.301Z,66.42
2022-10-20T15:54:20.602Z,66.50
2022-10-20T15:56:48.630Z,66.75
2022-10-20T15:59:16.057Z,66.90
2022-10-20T16:01:43.740Z,67.03
2022-10-20T16:04:28.660Z,67.29
2022-10-20T16:06:58.864Z,67.74
2022-10-20T16:09:27.944Z,67.64
2022-10-20T16:11:55.464Z,67.80
2022-10-20T16:14:22.973Z,68.00
2022-10-20T16:16:50.552Z,68.07
2022-10-20T16:19:18.021Z,68.04
2022-10-20T16:21:45.557Z,68.32
2022-10-20T16:24:12.954Z,68.40
2022-10-20T16:26:40.488Z,68.72
2022-10-20T16:29:07.925Z,69.12
2022-10-20T16:31:35.397Z,69.09
2022-10-20T16:34:02.882Z,68.96
2022-10-20T16:36:30.287Z,69.22
2022-10-20T16:38:57.965Z,69.28
2022-10-20T16:41:25.425Z,69.49
2022-10-20T16:43:55.404Z,69.80
2022-10-20T16:46:25.033Z,70.96
2022-10-20T16:48:52.471Z,71.58
2022-10-20T16:51:19.985Z,72.25
2022-10-20T16:53:48.298Z,72.52
2022-10-20T16:56:19.833Z,73.33
2022-10-20T16:58:49.430Z,72.92
2022-10-20T17:01:19.649Z,73.05
2022-10-20T17:03:52.629Z,73.45
2022-10-20T17:06:23.956Z,73.48
2022-10-20T17:08:53.114Z,74.01
2022-10-20T17:11:28.930Z,74.54
2022-10-20T17:13:57.685Z,74.98
2022-10-20T17:16:30.075Z,75.76
2022-10-20T17:19:00.322Z,76.11
2022-10-20T17:21:30.894Z,76.42
2022-10-20T17:23:58.984Z,76.63
2022-10-20T17:26:30.545Z,76.87
2022-10-20T17:29:01.517Z,76.95
2022-10-20T17:31:29.599Z,77.38
2022-10-20T17:34:00.611Z,77.55
2022-10-20T17:36:30.124Z,77.85
2022-10-20T17:39:02.217Z,77.73
2022-10-20T17:41:30.124Z,77.98
2022-10-20T17:44:01.289Z,78.00
2022-10-20T17:46:28.988Z,78.47
2022-10-20T17:48:56.534Z,78.46
2022-10-20T17:51:28.942Z,78.18
2022-10-20T17:53:59.386Z,78.07
2022-10-20T17:56:31.450Z,77.81
2022-10-20T17:59:02.900Z,77.47
2022-10-20T18:01:34.310Z,77.88
2022-10-20T18:04:05.557Z,78.32
2022-10-20T18:06:35.499Z,78.64
2022-10-20T18:09:13.073Z,78.86
2022-10-20T18:11:45.812Z,79.21
2022-10-20T18:14:13.782Z,79.35
2022-10-20T18:16:41.719Z,79.55
2022-10-20T18:19:18.333Z,79.93
2022-10-20T18:21:46.217Z,80.11
2022-10-20T18:24:15.790Z,80.45
2022-10-20T18:26:44.657Z,80.35
2022-10-20T18:29:14.695Z,80.50
2022-10-20T18:31:45.209Z,80.60
2022-10-20T18:34:22.661Z,80.74
2022-10-20T18:36:53.703Z,80.92
2022-10-20T18:39:21.225Z,81.14
2022-10-20T18:41:52.286Z,80.99
2022-10-20T18:44:20.744Z,80.92
2022-10-20T18:46:48.077Z,81.24
2022-10-20T18:49:21.555Z,81.38
2022-10-20T18:51:49.918Z,81.57
2022-10-20T18:54:21.378Z,81.70
2022-10-20T18:56:48.848Z,81.78
2022-10-20T18:59:17.230Z,82.18
2022-10-20T19:01:45.301Z,82.40
2022-10-20T19:04:13.194Z,82.46
2022-10-20T19:06:47.622Z,82.68
2022-10-20T19:09:19.948Z,82.67
2022-10-20T19:14:18.039Z,83.34
2022-10-20T19:16:47.053Z,83.35
2022-10-20T19:19:15.722Z,83.40
2022-10-20T19:21:43.299Z,83.69
2022-10-20T19:24:19.363Z,83.77
2022-10-20T19:26:57.450Z,83.89
2022-10-20T19:29:35.968Z,84.03
2022-10-20T19:32:06.170Z,84.09
2022-10-20T19:34:37.819Z,84.36
2022-10-20T19:37:06.562Z,84.49
2022-10-20T19:39:39.264Z,84.63
2022-10-20T19:42:09.202Z,84.89
2022-10-20T19:44:37.929Z,84.79
2022-10-20T19:47:06.417Z,84.87
2022-10-20T19:49:34.060Z,85.01
2022-10-20T19:52:01.623Z,85.07
2022-10-20T19:54:29.291Z,85.13
2022-10-20T19:56:56.994Z,85.23
2022-10-20T19:59:25.031Z,85.21
2022-10-20T20:01:52.759Z,85.35
2022-10-20T20:04:20.665Z,85.42
2022-10-20T20:06:48.388Z,85.41
2022-10-20T20:09:16.480Z,85.45
2022-10-20T20:11:44.580Z,85.30
2022-10-20T20:14:19.019Z,85.49
2022-10-20T20:16:47.628Z,85.43
2022-10-20T20:19:17.199Z,85.53
2022-10-20T20:21:46.004Z,85.44
2022-10-20T20:24:14.753Z,85.41
2022-10-20T20:26:44.442Z,85.50
2022-10-20T20:29:12.047Z,85.48
2022-10-20T20:31:39.459Z,85.60
2022-10-20T20:34:06.897Z,85.49
2022-10-20T20:36:34.440Z,85.49
2022-10-20T20:39:02.238Z,85.51
2022-10-20T20:41:33.041Z,85.66
2022-10-20T20:44:04.265Z,85.52
2022-10-20T20:46:36.305Z,85.71
2022-10-20T20:49:03.726Z,85.56
2022-10-20T20:51:33.837Z,85.49
2022-10-20T20:54:03.373Z,86.11
2022-10-20T20:56:31.500Z,85.76
2022-10-20T20:58:58.933Z,85.60
2022-10-20T21:01:28.978Z,85.84
2022-10-20T21:04:03.592Z,86.14
2022-10-20T21:06:49.553Z,86.70
2022-10-20T21:09:20.136Z,86.75
2022-10-20T21:11:49.101Z,86.55
2022-10-20T21:14:16.594Z,87.10
2022-10-20T21:16:44.234Z,87.12
2022-10-20T21:19:11.799Z,86.71
2022-10-20T21:21:44.309Z,87.31
2022-10-20T21:24:13.001Z,87.02
2022-10-20T21:26:40.600Z,87.23
2022-10-20T21:29:08.155Z,88.25
2022-10-20T21:31:36.372Z,89.09
2022-10-20T21:34:05.599Z,88.77
2022-10-20T21:36:35.502Z,88.90
2022-10-20T21:39:06.343Z,88.44
2022-10-20T21:41:36.155Z,87.83
2022-10-20T21:44:06.227Z,87.42
2022-10-20T21:46:42.000Z,87.30
2022-10-20T21:49:15.991Z,87.57
2022-10-20T21:51:53.694Z,87.73
2022-10-20T21:54:25.167Z,87.85
2022-10-20T21:56:54.010Z,88.35
2022-10-20T21:59:30.386Z,88.24
2022-10-20T22:02:01.626Z,88.23
2022-10-20T22:04:30.346Z,88.67
2022-10-20T22:06:59.557Z,88.60
2022-10-20T22:09:28.224Z,88.67
2022-10-20T22:11:58.417Z,88.70
2022-10-20T22:14:26.307Z,88.47
2022-10-20T22:16:55.575Z,89.28
2022-10-20T22:19:25.302Z,88.96
2022-10-20T22:21:54.122Z,88.82
2022-10-20T22:24:22.706Z,88.99
2022-10-20T22:26:51.692Z,88.97
2022-10-20T22:29:21.546Z,89.01
2022-10-20T22:31:50.067Z,89.24
2022-10-20T22:34:17.825Z,89.64
2022-10-20T22:36:45.361Z,89.96
2022-10-20T22:39:14.032Z,90.28
2022-10-20T22:41:41.528Z,90.53
2022-10-20T22:44:09.849Z,90.52
2022-10-20T22:46:37.360Z,90.87
2022-10-20T22:49:04.885Z,91.11
2022-10-20T22:51:32.402Z,91.15
2022-10-20T22:53:59.884Z,91.12
2022-10-20T22:56:27.367Z,90.97
2022-10-20T22:58:55.414Z,91.05
2022-10-20T23:01:23.985Z,91.16
2022-10-20T23:03:52.189Z,91.16
2022-10-20T23:06:24.517Z,91.38
2022-10-20T23:08:55.768Z,91.32
2022-10-20T23:11:24.062Z,91.13
2022-10-20T23:13:52.050Z,91.17
2022-10-20T23:16:20.694Z,91.05
2022-10-20T23:18:48.427Z,91.11
2022-10-20T23:21:15.994Z,91.08
2022-10-20T23:23:45.090Z,90.96
2022-10-20T23:26:13.131Z,90.96
2022-10-20T23:28:40.855Z,90.99
2022-10-20T23:31:14.257Z,90.94
2022-10-20T23:33:44.214Z,90.76
2022-10-20T23:36:14.090Z,90.73
2022-10-20T23:38:42.925Z,90.31
2022-10-20T23:41:10.913Z,89.99
2022-10-20T23:43:38.881Z,90.05
2022-10-20T23:46:07.047Z,90.04
2022-10-20T23:48:35.418Z,91.08
2022-10-20T23:51:02.960Z,91.20
2022-10-20T23:53:30.956Z,90.87
2022-10-20T23:55:58.386Z,90.70
2022-10-20T23:58:26.242Z,90.91
